createdAt,value
2022-11-25T03:59:49.174Z,48.08
2022-11-25T04:00:49.112Z,47.97
2022-11-25T04:01:49.136Z,48.07
2022-11-25T04:02:49.188Z,48.07
2022-11-25T04:03:49.080Z,48.07
2022-11-25T04:04:49.084Z,48.25
2022-11-25T04:05:49.078Z,48.16
2022-11-25T04:06:49.171Z,48.25
2022-11-25T04:07:52.252Z,48.45
2022-11-25T04:08:49.054Z,48.38
2022-11-25T04:09:49.063Z,48.57
2022-11-25T04:10:49.032Z,48.57
2022-11-25T04:11:49.048Z,48.57
2022-11-25T04:12:49.094Z,48.57
2022-11-25T04:13:49.028Z,48.47
2022-11-25T04:14:49.019Z,48.57
2022-11-25T04:15:49.049Z,48.57
2022-11-25T04:16:49.065Z,48.57
2022-11-25T04:17:49.178Z,48.47
2022-11-25T04:18:48.998Z,48.66
2022-11-25T04:19:49.023Z,48.76
2022-11-25T04:20:48.995Z,48.76
2022-11-25T04:21:52.269Z,48.66
2022-11-25T04:22:48.990Z,48.85
2022-11-25T04:23:48.985Z,48.85
2022-11-25T04:24:48.963Z,48.66
2022-11-25T04:25:48.964Z,48.76
2022-11-25T04:26:48.987Z,48.47
2022-11-25T04:27:48.944Z,48.85
2022-11-25T04:28:48.947Z,48.85
2022-11-25T04:29:48.977Z,48.66
2022-11-25T04:30:49.020Z,48.85
2022-11-25T04:31:48.941Z,48.57
2022-11-25T04:32:48.945Z,48.79
2022-11-25T04:33:52.534Z,48.76
2022-11-25T04:34:48.937Z,48.88
2022-11-25T04:35:48.918Z,48.88
2022-11-25T04:36:48.956Z,48.69
2022-11-25T04:37:48.914Z,48.79
2022-11-25T04:38:48.911Z,48.79
2022-11-25T04:39:48.904Z,48.79
2022-11-25T04:40:48.901Z,48.69
2022-11-25T04:41:48.890Z,48.79
2022-11-25T04:42:48.888Z,48.69
2022-11-25T04:43:48.887Z,48.79
2022-11-25T04:45:07.566Z,48.88
2022-11-25T04:46:13.176Z,48.69
2022-11-25T04:46:48.907Z,48.79
2022-11-25T04:47:48.880Z,48.79
2022-11-25T04:48:48.889Z,48.79
2022-11-25T04:49:48.860Z,48.79
2022-11-25T04:50:48.849Z,48.49
2022-11-25T04:51:48.865Z,48.59
2022-11-25T04:52:48.863Z,48.49
2022-11-25T04:53:48.845Z,48.59
2022-11-25T04:54:48.846Z,48.59
2022-11-25T04:55:48.834Z,48.49
2022-11-25T04:56:48.824Z,48.69
2022-11-25T04:57:48.827Z,48.69
2022-11-25T04:58:48.820Z,48.69
2022-11-25T04:59:48.852Z,48.69
2022-11-25T05:00:48.812Z,48.59
2022-11-25T05:01:48.893Z,48.49
2022-11-25T05:02:49.747Z,48.49
2022-11-25T05:03:51.905Z,48.59
2022-11-25T05:04:48.801Z,48.59
2022-11-25T05:05:48.816Z,48.49
2022-11-25T05:06:48.797Z,48.49
2022-11-25T05:07:48.847Z,48.49
2022-11-25T05:08:48.828Z,48.61
2022-11-25T05:09:48.793Z,48.43
2022-11-25T05:10:48.782Z,48.59
2022-11-25T05:11:48.788Z,48.69
2022-11-25T05:12:48.771Z,48.61
2022-11-25T05:13:48.776Z,48.69
2022-11-25T05:14:48.759Z,48.61
2022-11-25T05:15:48.750Z,48.59
2022-11-25T05:16:48.835Z,48.52
2022-11-25T05:17:48.752Z,48.61
2022-11-25T05:18:48.749Z,48.61
2022-11-25T05:19:48.747Z,48.52
2022-11-25T05:20:48.729Z,48.61
2022-11-25T05:21:48.738Z,48.43
2022-11-25T05:22:48.734Z,48.43
2022-11-25T05:23:52.955Z,48.43
2022-11-25T05:24:48.713Z,48.43
2022-11-25T05:25:48.722Z,48.43
2022-11-25T05:26:48.711Z,48.43
2022-11-25T05:27:48.703Z,48.52
2022-11-25T05:28:48.700Z,48.43
2022-11-25T05:29:52.924Z,48.52
2022-11-25T05:30:48.766Z,48.61
2022-11-25T05:31:48.709Z,48.61
2022-11-25T05:32:48.683Z,48.52
2022-11-25T05:33:48.685Z,48.61
2022-11-25T05:34:48.677Z,48.52
2022-11-25T05:35:48.753Z,48.61
2022-11-25T05:36:48.688Z,48.61
2022-11-25T05:37:48.710Z,48.33
2022-11-25T05:38:48.661Z,48.23
2022-11-25T05:39:48.676Z,48.61
2022-11-25T05:40:48.661Z,48.52
2022-11-25T05:41:48.668Z,48.43
2022-11-25T05:42:48.657Z,48.33
2022-11-25T05:43:48.641Z,48.43
2022-11-25T05:44:48.666Z,48.23
2022-11-25T05:45:48.668Z,48.52
2022-11-25T05:46:48.665Z,48.43
2022-11-25T05:47:48.619Z,48.33
2022-11-25T05:48:48.720Z,48.43
2022-11-25T05:49:48.616Z,48.23
2022-11-25T05:50:48.621Z,48.23
2022-11-25T05:51:48.627Z,48.33
2022-11-25T05:52:48.604Z,48.43
2022-11-25T05:53:48.593Z,48.23
2022-11-25T05:54:49.309Z,48.43
2022-11-25T05:55:48.598Z,48.33
2022-11-25T05:56:48.595Z,48.33
2022-11-25T05:57:48.586Z,48.43
2022-11-25T05:58:48.583Z,48.43
2022-11-25T05:59:48.575Z,48.33
2022-11-25T06:00:48.567Z,48.33
2022-11-25T06:01:48.566Z,48.23
2022-11-25T06:02:48.704Z,48.43
2022-11-25T06:03:48.728Z,48.43
2022-11-25T06:04:48.559Z,48.13
2022-11-25T06:05:48.547Z,48.33
2022-11-25T06:06:48.551Z,48.33
2022-11-25T06:07:48.637Z,48.33
2022-11-25T06:08:48.543Z,48.33
2022-11-25T06:09:48.542Z,48.13
2022-11-25T06:10:48.539Z,48.33
2022-11-25T06:11:48.538Z,48.43
2022-11-25T06:12:48.539Z,48.43
2022-11-25T06:13:48.543Z,48.33
2022-11-25T06:14:48.521Z,48.33
2022-11-25T06:15:48.551Z,48.23
2022-11-25T06:16:48.525Z,48.33
2022-11-25T06:17:48.511Z,48.43
2022-11-25T06:18:48.532Z,48.33
2022-11-25T06:19:48.501Z,48.43
2022-11-25T06:20:48.524Z,48.43
2022-11-25T06:21:48.520Z,48.43
2022-11-25T06:22:48.480Z,48.23
2022-11-25T06:23:48.498Z,48.43
2022-11-25T06:24:55.367Z,48.33
2022-11-25T06:25:48.477Z,48.33
2022-11-25T06:26:48.471Z,48.33
2022-11-25T06:28:11.919Z,48.43
2022-11-25T06:28:48.465Z,48.33
2022-11-25T06:29:48.464Z,48.33
2022-11-25T06:30:48.476Z,48.33
2022-11-25T06:31:48.451Z,48.23
2022-11-25T06:32:48.459Z,48.33
2022-11-25T06:33:48.470Z,48.23
2022-11-25T06:34:48.437Z,48.43
2022-11-25T06:35:48.467Z,48.23
2022-11-25T06:36:48.430Z,48.33
2022-11-25T06:37:48.439Z,48.33
2022-11-25T06:38:48.426Z,48.43
2022-11-25T06:39:48.461Z,48.43
2022-11-25T06:40:48.407Z,48.23
2022-11-25T06:41:48.427Z,48.23
2022-11-25T06:42:48.419Z,48.52
2022-11-25T06:43:48.662Z,48.23
2022-11-25T06:44:48.393Z,48.23
2022-11-25T06:45:48.393Z,48.43
2022-11-25T06:46:49.484Z,48.43
2022-11-25T06:47:48.848Z,48.43
2022-11-25T06:48:53.361Z,48.33
2022-11-25T06:49:48.377Z,48.33
2022-11-25T06:50:48.405Z,48.33
2022-11-25T06:51:48.422Z,48.23
2022-11-25T06:52:48.414Z,48.33
2022-11-25T06:53:55.440Z,48.43
2022-11-25T06:54:48.435Z,48.23
2022-11-25T06:55:48.491Z,48.43
2022-11-25T06:56:51.904Z,48.43
2022-11-25T06:59:09.379Z,48.23
2022-11-25T07:00:24.353Z,48.43
2022-11-25T07:01:10.003Z,48.33
2022-11-25T07:01:48.487Z,48.23
2022-11-25T07:02:50.354Z,48.33
2022-11-25T07:03:48.333Z,48.33
2022-11-25T07:04:48.343Z,48.33
2022-11-25T07:05:48.327Z,48.23
2022-11-25T07:06:48.335Z,48.43
2022-11-25T07:07:48.364Z,48.33
2022-11-25T07:08:48.314Z,48.43
2022-11-25T07:09:48.293Z,48.43
2022-11-25T07:10:48.296Z,48.33
2022-11-25T07:12:48.290Z,48.43
2022-11-25T07:13:48.291Z,48.23
2022-11-25T07:14:48.339Z,48.43
2022-11-25T07:15:48.389Z,48.23
2022-11-25T07:16:48.266Z,48.33
2022-11-25T07:17:48.280Z,48.13
2022-11-25T07:18:48.264Z,48.23
2022-11-25T07:19:48.289Z,48.43
2022-11-25T07:20:48.275Z,48.33
2022-11-25T07:21:52.905Z,48.23
2022-11-25T07:22:48.250Z,48.33
2022-11-25T07:23:48.240Z,48.33
2022-11-25T07:24:48.241Z,48.33
2022-11-25T07:25:48.274Z,48.43
2022-11-25T07:26:48.329Z,48.33
2022-11-25T07:27:48.229Z,48.43
2022-11-25T07:28:48.247Z,48.03
2022-11-25T07:30:03.484Z,48.23
2022-11-25T07:31:22.873Z,48.33
2022-11-25T07:31:48.266Z,48.43
2022-11-25T07:32:48.232Z,48.23
2022-11-25T07:33:48.218Z,48.13
2022-11-25T07:34:48.197Z,48.23
2022-11-25T07:35:48.213Z,48.23
2022-11-25T07:36:48.242Z,48.33
2022-11-25T07:37:50.059Z,48.43
2022-11-25T07:38:48.183Z,48.13
2022-11-25T07:39:48.182Z,48.13
2022-11-25T07:40:48.173Z,48.33
2022-11-25T07:41:48.193Z,48.13
2022-11-25T07:42:48.164Z,48.43
2022-11-25T07:43:48.333Z,48.33
2022-11-25T07:45:48.551Z,48.33
2022-11-25T07:46:49.619Z,48.33
2022-11-25T07:47:48.137Z,48.33
2022-11-25T07:48:48.174Z,48.13
2022-11-25T07:49:48.255Z,48.33
2022-11-25T07:50:48.220Z,48.33
2022-11-25T07:51:48.132Z,48.33
2022-11-25T07:52:48.139Z,48.33
2022-11-25T07:53:48.181Z,48.33
2022-11-25T07:54:48.115Z,48.33
2022-11-25T07:55:48.116Z,48.33
2022-11-25T07:56:48.189Z,48.33
2022-11-25T07:57:48.264Z,48.43
2022-11-25T07:58:48.099Z,48.33
2022-11-25T07:59:49.415Z,48.33
2022-11-25T08:00:48.089Z,48.23
2022-11-25T08:01:48.161Z,48.23
2022-11-25T08:02:48.168Z,48.33
2022-11-25T08:03:48.078Z,48.43
2022-11-25T08:04:48.154Z,48.23
2022-11-25T08:05:48.375Z,48.43
2022-11-25T08:06:48.073Z,48.43
2022-11-25T08:07:48.196Z,48.13
2022-11-25T08:08:48.094Z,48.13
2022-11-25T08:09:48.087Z,48.13
2022-11-25T08:10:48.065Z,48.33
2022-11-25T08:11:48.078Z,48.43
2022-11-25T08:12:48.045Z,48.33
2022-11-25T08:13:48.045Z,48.23
2022-11-25T08:14:48.041Z,48.03
2022-11-25T08:15:48.139Z,48.43
2022-11-25T08:16:48.031Z,48.33
2022-11-25T08:17:48.051Z,48.23
2022-11-25T08:18:48.227Z,48.13
2022-11-25T08:19:48.060Z,48.43
2022-11-25T08:20:48.017Z,48.33
2022-11-25T08:21:48.192Z,48.25
2022-11-25T08:22:48.014Z,48.43
2022-11-25T08:23:48.086Z,48.44
2022-11-25T08:24:47.998Z,48.25
2022-11-25T08:25:50.638Z,48.25
2022-11-25T08:26:47.991Z,48.16
2022-11-25T08:27:48.209Z,48.16
2022-11-25T08:28:48.909Z,48.44
2022-11-25T08:29:48.363Z,48.25
2022-11-25T08:30:48.178Z,48.35
2022-11-25T08:31:48.077Z,48.16
2022-11-25T08:32:50.794Z,48.16
2022-11-25T08:33:50.326Z,48.25
2022-11-25T08:34:48.663Z,48.25
2022-11-25T08:35:48.104Z,48.35
2022-11-25T08:36:55.983Z,48.35
2022-11-25T08:37:49.093Z,48.35
2022-11-25T08:38:47.981Z,48.64
2022-11-25T08:39:52.743Z,48.54
2022-11-25T08:40:47.993Z,48.16
2022-11-25T08:41:53.854Z,48.35
2022-11-25T08:42:47.948Z,48.35
2022-11-25T08:43:47.957Z,48.44
2022-11-25T08:44:47.924Z,48.44
2022-11-25T08:45:48.020Z,48.44
2022-11-25T08:46:48.025Z,48.64
2022-11-25T08:47:49.760Z,48.44
2022-11-25T08:48:48.229Z,48.54
2022-11-25T08:49:48.511Z,48.44
2022-11-25T08:50:48.099Z,48.54
2022-11-25T08:51:48.065Z,48.25
2022-11-25T08:52:50.454Z,48.25
2022-11-25T08:53:47.916Z,48.44
2022-11-25T08:54:50.649Z,48.44
2022-11-25T08:55:47.949Z,48.54
2022-11-25T08:56:52.083Z,48.44
2022-11-25T08:57:48.159Z,48.54
2022-11-25T08:58:53.531Z,48.35
2022-11-25T08:59:47.963Z,48.44
2022-11-25T09:00:47.885Z,48.54
2022-11-25T09:01:50.653Z,48.64
2022-11-25T09:02:48.019Z,48.44
2022-11-25T09:03:48.036Z,48.44
2022-11-25T09:04:48.067Z,48.44
2022-11-25T09:05:47.863Z,48.44
2022-11-25T09:06:47.956Z,48.64
2022-11-25T09:07:48.079Z,48.54
2022-11-25T09:09:47.973Z,48.64
2022-11-25T09:10:47.901Z,48.54
2022-11-25T09:11:47.969Z,48.44
2022-11-25T09:12:47.866Z,48.44
2022-11-25T09:13:47.912Z,48.54
2022-11-25T09:14:50.731Z,48.35
2022-11-25T09:16:03.760Z,48.54
2022-11-25T09:16:47.810Z,48.64
2022-11-25T09:17:48.347Z,48.64
2022-11-25T09:18:54.068Z,48.64
2022-11-25T09:19:48.242Z,48.44
2022-11-25T09:20:47.806Z,48.54
2022-11-25T09:21:48.647Z,48.54
2022-11-25T09:22:47.900Z,48.64
2022-11-25T09:24:49.520Z,48.64
2022-11-25T09:25:47.820Z,48.54
2022-11-25T09:26:49.089Z,48.64
2022-11-25T09:27:48.451Z,48.44
2022-11-25T09:28:47.757Z,48.44
2022-11-25T09:29:47.778Z,48.35
2022-11-25T09:30:47.888Z,48.74
2022-11-25T09:31:53.158Z,48.64
2022-11-25T09:32:48.028Z,48.64
2022-11-25T09:33:47.730Z,48.64
2022-11-25T09:34:47.804Z,48.64
2022-11-25T09:35:47.791Z,48.54
2022-11-25T09:36:47.730Z,48.64
2022-11-25T09:37:47.908Z,48.64
2022-11-25T09:38:47.724Z,48.64
2022-11-25T09:39:47.713Z,48.44
2022-11-25T09:40:47.727Z,48.44
2022-11-25T09:41:47.775Z,48.47
2022-11-25T09:42:47.767Z,48.47
2022-11-25T09:43:47.780Z,48.44
2022-11-25T09:44:47.912Z,48.66
2022-11-25T09:45:47.683Z,48.57
2022-11-25T09:46:47.778Z,48.38
2022-11-25T09:47:50.616Z,48.66
2022-11-25T09:48:47.756Z,48.66
2022-11-25T09:49:47.746Z,48.57
2022-11-25T09:50:47.814Z,48.66
2022-11-25T09:51:47.721Z,48.38
2022-11-25T09:52:47.710Z,48.47
2022-11-25T09:53:47.675Z,48.57
2022-11-25T09:54:47.658Z,48.66
2022-11-25T09:55:47.702Z,48.57
2022-11-25T09:56:47.668Z,48.66
2022-11-25T09:58:47.889Z,48.66
2022-11-25T09:59:47.640Z,48.47
2022-11-25T10:00:47.770Z,48.66
2022-11-25T10:01:47.800Z,48.57
2022-11-25T10:02:47.733Z,48.66
2022-11-25T10:13:56.148Z,48.38
2022-11-25T10:14:49.213Z,48.38
2022-11-25T10:15:48.782Z,48.18
2022-11-25T10:16:51.566Z,48.28
2022-11-25T10:17:48.838Z,48.28
2022-11-25T10:18:49.119Z,48.28
2022-11-25T10:19:48.732Z,48.28
2022-11-25T10:20:48.886Z,48.28
2022-11-25T10:21:48.768Z,48.28
2022-11-25T10:22:48.749Z,48.38
2022-11-25T10:23:48.749Z,48.38
2022-11-25T10:24:54.616Z,48.38
2022-11-25T10:25:48.780Z,48.47
2022-11-25T10:26:48.696Z,48.38
2022-11-25T10:27:48.773Z,48.66
2022-11-25T10:28:49.996Z,48.59
2022-11-25T10:29:52.110Z,48.40
2022-11-25T10:30:48.841Z,48.59
2022-11-25T10:31:49.701Z,48.69
2022-11-25T10:37:20.284Z,48.59
2022-11-25T10:38:19.943Z,48.59
2022-11-25T10:39:19.381Z,48.69
2022-11-25T10:40:19.704Z,48.59
2022-11-25T10:41:20.313Z,48.49
2022-11-25T10:42:20.420Z,48.61
2022-11-25T10:43:19.446Z,48.61
2022-11-25T10:44:22.318Z,48.52
2022-11-25T10:45:25.925Z,48.61
2022-11-25T10:46:19.428Z,48.42
2022-11-25T10:47:20.066Z,48.52
2022-11-25T10:48:34.066Z,48.71
2022-11-25T10:49:19.545Z,48.61
2022-11-25T10:50:20.059Z,48.61
2022-11-25T10:51:25.871Z,48.61
2022-11-25T10:52:19.298Z,48.61
2022-11-25T10:53:19.286Z,48.54
2022-11-25T10:54:25.608Z,48.61
2022-11-25T10:55:19.156Z,48.42
2022-11-25T10:56:19.123Z,48.74
2022-11-25T10:57:19.172Z,48.54
2022-11-25T10:58:19.162Z,48.54
2022-11-25T10:59:19.113Z,48.54
2022-11-25T11:00:19.145Z,48.74
2022-11-25T11:01:19.176Z,48.64
2022-11-25T11:02:19.330Z,48.74
2022-11-25T11:03:19.183Z,48.64
2022-11-25T11:04:19.117Z,48.64
2022-11-25T11:05:19.113Z,48.64
2022-11-25T11:06:19.096Z,48.64
2022-11-25T11:07:19.169Z,48.64
2022-11-25T11:08:19.129Z,48.64
2022-11-25T11:09:19.187Z,48.54
2022-11-25T11:10:19.101Z,48.54
2022-11-25T11:11:19.081Z,48.74
2022-11-25T11:12:19.119Z,48.74
2022-11-25T11:13:19.098Z,48.74
2022-11-25T11:14:19.105Z,48.64
2022-11-25T11:15:19.076Z,48.44
2022-11-25T11:16:19.096Z,48.54
2022-11-25T11:17:19.166Z,48.44
2022-11-25T11:18:19.080Z,48.35
2022-11-25T11:19:19.070Z,48.47
2022-11-25T11:20:19.063Z,48.37
2022-11-25T11:21:19.073Z,48.35
2022-11-25T11:22:19.072Z,48.37
2022-11-25T11:23:19.060Z,48.47
2022-11-25T11:24:19.064Z,48.28
2022-11-25T11:25:19.049Z,48.47
2022-11-25T11:26:19.050Z,48.28
2022-11-25T11:27:19.064Z,48.47
2022-11-25T11:28:19.155Z,48.47
2022-11-25T11:29:19.058Z,48.47
2022-11-25T11:30:19.121Z,48.47
2022-11-25T11:31:19.212Z,48.28
2022-11-25T11:32:19.947Z,48.28
2022-11-25T11:33:19.076Z,48.49
2022-11-25T11:34:20.196Z,48.69
2022-11-25T11:35:22.905Z,48.39
2022-11-25T11:36:19.159Z,48.39
2022-11-25T11:37:19.231Z,48.39
2022-11-25T11:38:19.026Z,48.49
2022-11-25T11:39:19.026Z,48.49
2022-11-25T11:40:19.874Z,48.42
2022-11-25T11:41:19.064Z,48.42
2022-11-25T11:42:19.040Z,48.23
2022-11-25T11:43:19.022Z,48.32
2022-11-25T11:44:19.161Z,48.13
2022-11-25T11:45:19.017Z,48.52
2022-11-25T11:46:19.065Z,47.94
2022-11-25T11:47:19.024Z,48.03
2022-11-25T11:48:19.024Z,48.06
2022-11-25T11:49:19.043Z,48.03
2022-11-25T11:50:19.098Z,48.06
2022-11-25T11:51:19.027Z,48.06
2022-11-25T11:52:19.015Z,47.96
2022-11-25T11:53:19.021Z,48.06
2022-11-25T11:54:19.015Z,47.96
2022-11-25T11:55:19.019Z,47.77
2022-11-25T11:56:34.763Z,47.86
2022-11-25T11:57:19.012Z,47.86
2022-11-25T11:58:19.021Z,47.96
2022-11-25T11:59:18.997Z,47.96
2022-11-25T12:00:19.043Z,47.86
2022-11-25T12:01:19.013Z,47.96
2022-11-25T12:02:19.075Z,47.86
2022-11-25T12:03:19.108Z,47.69
2022-11-25T12:04:19.027Z,47.89
2022-11-25T12:05:19.007Z,47.89
2022-11-25T12:06:19.003Z,47.60
2022-11-25T12:07:19.105Z,47.60
2022-11-25T12:08:19.009Z,47.60
2022-11-25T12:09:19.068Z,47.72
2022-11-25T12:10:19.001Z,47.62
2022-11-25T12:11:19.079Z,47.62
2022-11-25T12:12:19.014Z,47.62
2022-11-25T12:13:19.050Z,47.72
2022-11-25T12:14:19.023Z,47.81
2022-11-25T12:46:22.016Z,46.19
2022-11-25T12:47:21.903Z,46.19
2022-11-25T12:48:21.893Z,46.65
2022-11-25T12:49:21.893Z,46.67
2022-11-25T12:50:21.887Z,46.58
2022-11-25T12:51:21.889Z,46.65
2022-11-25T12:52:21.892Z,46.36
2022-11-25T12:53:21.899Z,46.65
2022-11-25T12:54:21.900Z,46.43
2022-11-25T12:55:24.451Z,46.62
2022-11-25T12:56:21.902Z,46.72
2022-11-25T12:57:21.897Z,46.24
2022-11-25T12:58:22.028Z,46.24
2022-11-25T12:59:21.914Z,46.72
2022-11-25T13:01:21.990Z,46.70
2022-11-25T13:02:22.021Z,46.70
2022-11-25T13:03:21.910Z,46.51
2022-11-25T13:04:21.894Z,46.60
2022-11-25T13:05:41.521Z,46.70
2022-11-25T13:06:21.925Z,46.51
2022-11-25T13:07:21.942Z,46.60
2022-11-25T13:08:21.921Z,46.39
2022-11-25T13:09:21.911Z,46.41
2022-11-25T13:10:21.892Z,46.39
2022-11-25T13:11:22.211Z,46.48
2022-11-25T13:12:22.225Z,46.58
2022-11-25T13:13:22.292Z,46.58
2022-11-25T13:14:22.312Z,46.48
2022-11-25T13:15:22.574Z,46.67
2022-11-25T13:16:22.460Z,46.48
2022-11-25T13:17:22.661Z,46.67
2022-11-25T13:18:22.029Z,46.77
2022-11-25T13:19:21.896Z,46.84
2022-11-25T13:20:21.896Z,46.94
2022-11-25T13:21:21.894Z,46.67
2022-11-25T13:22:21.887Z,46.87
2022-11-25T13:23:21.888Z,46.29
2022-11-25T13:24:21.896Z,46.48
2022-11-25T13:25:21.889Z,46.51
2022-11-25T13:26:21.883Z,46.60
2022-11-25T13:27:21.901Z,46.12
2022-11-25T13:28:21.899Z,46.02
2022-11-25T13:29:21.887Z,45.92
2022-11-25T13:30:21.893Z,45.95
2022-11-25T13:31:21.976Z,45.65
2022-11-25T13:32:21.885Z,45.83
2022-11-25T13:33:21.915Z,46.02
2022-11-25T13:34:22.006Z,46.12
2022-11-25T13:35:21.895Z,46.12
2022-11-25T13:36:21.887Z,46.70
2022-11-25T13:37:21.902Z,46.60
2022-11-25T13:38:21.887Z,46.51
2022-11-25T13:39:21.897Z,46.60
2022-11-25T13:40:21.889Z,46.58
2022-11-25T13:41:21.881Z,46.60
2022-11-25T13:42:21.891Z,46.51
2022-11-25T13:43:21.892Z,46.39
2022-11-25T13:44:21.887Z,46.48
2022-11-25T13:45:21.929Z,46.39
2022-11-25T13:46:21.897Z,46.48
2022-11-25T13:47:21.896Z,46.48
2022-11-25T13:48:21.914Z,46.09
2022-11-25T13:49:21.887Z,46.58
2022-11-25T13:50:22.530Z,46.58
2022-11-25T13:51:21.894Z,46.58
2022-11-25T13:52:21.908Z,46.67
2022-11-25T13:53:21.889Z,46.67
2022-11-25T13:54:21.893Z,46.39
2022-11-25T13:55:21.881Z,46.58
2022-11-25T13:56:21.895Z,46.58
2022-11-25T13:57:21.901Z,46.46
2022-11-25T13:58:21.897Z,46.26
2022-11-25T13:59:21.889Z,46.67
2022-11-25T14:00:21.876Z,46.46
2022-11-25T14:01:26.310Z,46.58
2022-11-25T14:02:22.025Z,46.39
2022-11-25T14:03:21.947Z,46.48
2022-11-25T14:04:21.879Z,46.48
2022-11-25T14:05:21.871Z,46.48
2022-11-25T14:06:21.899Z,46.46
2022-11-25T14:07:21.911Z,46.26
2022-11-25T14:08:21.907Z,46.36
2022-11-25T14:09:21.867Z,46.26
2022-11-25T14:10:21.868Z,46.46
2022-11-25T14:11:21.874Z,46.66
2022-11-25T14:12:21.884Z,46.94
2022-11-25T14:13:21.869Z,47.02
2022-11-25T14:14:21.885Z,46.83
2022-11-25T14:15:21.866Z,46.83
2022-11-25T14:16:21.899Z,46.83
2022-11-25T14:17:21.868Z,47.02
2022-11-25T14:18:36.874Z,47.21
2022-11-25T14:19:50.133Z,46.73
2022-11-25T14:20:21.863Z,47.00
2022-11-25T14:21:21.869Z,46.80
2022-11-25T14:22:21.868Z,46.80
2022-11-25T14:23:22.872Z,47.28
2022-11-25T14:24:21.869Z,47.19
2022-11-25T14:25:21.862Z,47.09
2022-11-25T14:26:48.068Z,47.26
2022-11-25T14:27:21.852Z,47.16
2022-11-25T14:28:21.845Z,47.36
2022-11-25T14:29:21.862Z,47.26
2022-11-25T14:30:21.852Z,47.07
2022-11-25T14:31:21.895Z,47.45
2022-11-25T14:32:21.845Z,47.33
2022-11-25T14:33:21.857Z,47.43
2022-11-25T14:34:21.936Z,47.43
2022-11-25T14:35:21.842Z,47.43
2022-11-25T14:36:21.839Z,47.33
2022-11-25T14:37:21.852Z,47.24
2022-11-25T14:38:21.884Z,47.53
2022-11-25T14:39:21.829Z,47.63
2022-11-25T14:40:21.833Z,47.43
2022-11-25T14:41:21.837Z,47.41
2022-11-25T14:42:22.002Z,47.41
2022-11-25T14:43:21.825Z,47.41
2022-11-25T14:44:21.829Z,47.60
2022-11-25T14:45:21.994Z,47.50
2022-11-25T14:46:21.862Z,47.70
2022-11-25T14:47:21.810Z,47.80
2022-11-25T14:48:21.830Z,47.70
2022-11-25T14:50:37.933Z,47.48
2022-11-25T14:51:21.812Z,47.77
2022-11-25T14:52:21.805Z,47.77
2022-11-25T14:53:21.815Z,47.77
2022-11-25T14:54:21.810Z,47.77
2022-11-25T14:55:21.809Z,47.87
2022-11-25T14:56:21.792Z,47.87
2022-11-25T14:57:21.854Z,47.87
2022-11-25T14:58:21.833Z,48.06
2022-11-25T14:59:21.801Z,47.87
2022-11-25T15:00:21.782Z,47.87
2022-11-25T15:01:21.791Z,48.06
2022-11-25T15:02:21.879Z,47.94
2022-11-25T15:03:21.770Z,47.85
2022-11-25T15:04:21.829Z,48.03
2022-11-25T15:05:21.773Z,48.03
2022-11-25T15:06:21.767Z,48.03
2022-11-25T15:07:26.301Z,48.03
2022-11-25T15:08:21.769Z,48.03
2022-11-25T15:09:21.757Z,48.23
2022-11-25T15:10:21.763Z,48.23
2022-11-25T15:11:21.756Z,48.33
2022-11-25T15:12:21.763Z,48.13
2022-11-25T15:13:21.752Z,48.23
2022-11-25T15:14:21.746Z,48.03
2022-11-25T15:15:21.767Z,48.13
2022-11-25T15:16:21.824Z,48.23
2022-11-25T15:17:21.747Z,48.21
2022-11-25T15:18:21.742Z,48.21
2022-11-25T15:19:21.733Z,48.40
2022-11-25T15:20:21.725Z,48.30
2022-11-25T15:21:21.748Z,48.30
2022-11-25T15:22:23.566Z,48.30
2022-11-25T15:23:21.716Z,48.40
2022-11-25T15:24:21.717Z,48.49
2022-11-25T15:25:21.742Z,48.40
2022-11-25T15:26:21.719Z,48.40
2022-11-25T15:27:21.709Z,48.40
2022-11-25T15:28:21.701Z,48.40
2022-11-25T15:29:21.694Z,48.49
2022-11-25T15:30:21.703Z,48.49
2022-11-25T15:31:21.745Z,48.30
2022-11-25T15:32:21.695Z,48.59
2022-11-25T15:33:21.683Z,48.40
2022-11-25T15:34:21.708Z,48.49
2022-11-25T15:35:21.678Z,48.59
2022-11-25T15:36:21.672Z,48.59
2022-11-25T15:37:21.677Z,48.69
2022-11-25T15:38:21.664Z,48.49
2022-11-25T15:39:21.664Z,48.40
2022-11-25T15:40:21.657Z,48.59
2022-11-25T15:41:21.657Z,48.69
2022-11-25T15:42:21.671Z,48.47
2022-11-25T15:43:21.652Z,48.59
2022-11-25T15:44:21.659Z,48.69
2022-11-25T15:45:21.645Z,48.66
2022-11-25T15:46:21.702Z,48.57
2022-11-25T15:47:21.639Z,48.76
2022-11-25T15:48:21.648Z,48.66
2022-11-25T15:49:21.632Z,48.76
2022-11-25T15:50:21.622Z,48.76
2022-11-25T15:51:21.616Z,48.66
2022-11-25T15:52:21.622Z,48.38
2022-11-25T15:53:24.795Z,48.57
2022-11-25T15:54:21.611Z,48.86
2022-11-25T15:55:21.606Z,48.86
2022-11-25T15:56:21.655Z,48.86
2022-11-25T15:57:21.621Z,48.76
2022-11-25T15:58:21.619Z,48.86
2022-11-25T15:59:21.607Z,48.76
2022-11-25T16:00:21.590Z,48.86
2022-11-25T16:01:21.675Z,48.86
2022-11-25T16:13:06.305Z,48.57
2022-11-25T16:14:06.316Z,48.47
2022-11-25T16:15:06.280Z,48.57
2022-11-25T16:16:06.303Z,48.76
2022-11-25T16:17:06.364Z,48.66
2022-11-25T16:18:24.844Z,48.76
2022-11-25T16:19:06.256Z,48.86
2022-11-25T16:20:06.263Z,48.93
2022-11-25T16:21:06.249Z,48.83
2022-11-25T16:22:06.242Z,48.95
2022-11-25T16:23:06.299Z,48.93
2022-11-25T16:24:06.244Z,48.93
2022-11-25T16:25:06.229Z,48.95
2022-11-25T16:26:06.223Z,49.02
2022-11-25T16:27:06.329Z,49.12
2022-11-25T16:28:06.221Z,49.22
2022-11-25T16:29:06.236Z,49.02
2022-11-25T16:30:06.235Z,48.93
2022-11-25T16:31:06.213Z,49.05
2022-11-25T16:32:06.304Z,49.22
2022-11-25T16:33:06.195Z,49.32
2022-11-25T16:34:06.188Z,49.02
2022-11-25T16:35:06.185Z,49.22
2022-11-25T16:36:09.513Z,49.32
2022-11-25T16:37:06.189Z,49.02
2022-11-25T16:38:06.181Z,49.02
2022-11-25T16:39:06.168Z,49.22
2022-11-25T16:40:06.168Z,49.22
2022-11-25T16:41:06.169Z,49.02
2022-11-25T16:42:06.175Z,49.12
2022-11-25T16:43:06.162Z,49.02
2022-11-25T16:44:09.035Z,49.22
2022-11-25T16:45:06.146Z,49.12
2022-11-25T16:46:06.232Z,49.12
2022-11-25T16:47:06.162Z,49.12
2022-11-25T16:48:06.145Z,49.60
2022-11-25T16:49:06.134Z,49.22
2022-11-25T16:50:09.884Z,49.41
2022-11-25T16:51:06.121Z,49.12
2022-11-25T16:52:06.121Z,49.22
2022-11-25T16:53:06.130Z,49.02
2022-11-25T16:54:06.114Z,49.12
2022-11-25T16:55:06.113Z,48.93
2022-11-25T16:56:06.109Z,49.32
2022-11-25T16:57:06.102Z,49.41
2022-11-25T16:58:06.106Z,49.51
2022-11-25T16:59:06.097Z,49.60
2022-11-25T17:00:06.116Z,49.70
2022-11-25T17:01:06.100Z,49.12
2022-11-25T17:02:06.247Z,49.51
2022-11-25T17:03:06.144Z,49.32
2022-11-25T17:04:06.080Z,49.32
2022-11-25T17:05:06.079Z,49.32
2022-11-25T17:06:06.087Z,49.51
2022-11-25T17:07:33.878Z,49.12
2022-11-25T17:08:06.171Z,49.32
2022-11-25T17:09:06.055Z,49.51
2022-11-25T17:10:06.059Z,49.12
2022-11-25T17:11:06.056Z,49.60
2022-11-25T17:12:06.051Z,49.32
2022-11-25T17:13:06.041Z,49.41
2022-11-25T17:14:06.167Z,49.22
2022-11-25T17:15:06.206Z,49.32
2022-11-25T17:16:06.277Z,49.32
2022-11-25T17:17:06.081Z,49.32
2022-11-25T17:18:06.033Z,49.79
2022-11-25T17:19:06.181Z,49.70
2022-11-25T17:20:06.031Z,49.79
2022-11-25T17:21:06.043Z,49.79
2022-11-25T17:22:06.008Z,49.79
2022-11-25T17:23:06.004Z,49.60
2022-11-25T17:24:06.015Z,49.70
2022-11-25T17:25:05.996Z,49.51
2022-11-25T17:26:06.007Z,49.60
2022-11-25T17:27:05.992Z,49.60
2022-11-25T17:28:05.992Z,49.70
2022-11-25T17:29:05.987Z,49.41
2022-11-25T17:30:05.984Z,49.70
2022-11-25T17:31:05.972Z,49.41
2022-11-25T17:32:06.045Z,49.60
2022-11-25T17:33:05.971Z,49.41
2022-11-25T17:34:05.986Z,49.41
2022-11-25T17:35:05.967Z,49.32
2022-11-25T17:36:05.962Z,49.70
2022-11-25T17:37:05.954Z,49.32
2022-11-25T17:38:05.949Z,49.79
2022-11-25T17:39:05.969Z,49.32
2022-11-25T17:40:05.961Z,49.79
2022-11-25T17:41:05.935Z,49.41
2022-11-25T17:42:05.935Z,49.60
2022-11-25T17:43:05.940Z,49.60
2022-11-25T17:44:05.932Z,49.70
2022-11-25T17:45:05.924Z,49.70
2022-11-25T17:46:06.012Z,49.51
2022-11-25T17:47:05.932Z,49.51
2022-11-25T17:48:05.910Z,49.70
2022-11-25T17:49:05.908Z,49.60
2022-11-25T17:50:05.951Z,49.41
2022-11-25T17:51:07.553Z,49.51
2022-11-25T17:52:05.895Z,49.51
2022-11-25T17:53:05.891Z,49.51
2022-11-25T17:54:05.894Z,49.51
2022-11-25T17:55:05.897Z,49.60
2022-11-25T17:56:05.889Z,49.70